createdAt,value
2018-11-14T00:02:40.895Z,94673.00
2018-11-14T00:17:45.687Z,94654.60
2018-11-14T00:32:49.469Z,94647.34
2018-11-14T00:47:53.256Z,94619.28
2018-11-14T01:02:57.055Z,94612.94
2018-11-14T01:18:00.872Z,94609.30
2018-11-14T01:33:04.907Z,94600.30
2018-11-14T01:48:08.704Z,94585.57
2018-11-14T02:03:12.463Z,94583.83
2018-11-14T02:18:16.226Z,94576.43
2018-11-14T02:33:20.001Z,94557.67
2018-11-14T02:48:23.778Z,94563.88
2018-11-14T03:03:27.533Z,94561.42
2018-11-14T03:18:31.304Z,94560.52
2018-11-14T03:33:35.089Z,94568.75
2018-11-14T03:48:38.877Z,94538.51
2018-11-14T04:03:42.668Z,94532.48
2018-11-14T04:18:46.720Z,94547.96
2018-11-14T04:33:50.531Z,94555.51
2018-11-14T04:48:54.317Z,94540.25
2018-11-14T05:03:58.110Z,94533.20
2018-11-14T05:19:01.956Z,94551.48
2018-11-14T05:34:06.181Z,94567.17
2018-11-14T05:49:09.958Z,94594.51
2018-11-14T06:04:13.745Z,94579.87
2018-11-14T06:19:17.529Z,94552.57
2018-11-14T06:34:21.308Z,94568.79
2018-11-14T06:49:25.152Z,94582.92
2018-11-14T07:04:28.979Z,94581.44
2018-11-14T07:19:32.795Z,94547.47
2018-11-14T07:34:37.230Z,94536.55
2018-11-14T07:49:41.057Z,94556.86
2018-11-14T08:04:44.857Z,94566.55
2018-11-14T08:19:48.829Z,94559.25
2018-11-14T08:34:52.615Z,94560.60
2018-11-14T08:49:56.386Z,94547.86
2018-11-14T09:05:00.193Z,94548.32
2018-11-14T09:20:04.165Z,94542.91
2018-11-14T09:35:09.142Z,94514.73
2018-11-14T09:50:16.044Z,94526.07
2018-11-14T10:05:21.250Z,94503.04
2018-11-14T10:20:25.573Z,94497.89
2018-11-14T10:35:31.464Z,94496.25
2018-11-14T10:50:35.348Z,94495.88
2018-11-14T11:05:45.739Z,94481.30
2018-11-14T11:20:51.043Z,94482.08
2018-11-14T11:35:54.882Z,94469.52
2018-11-14T11:50:58.729Z,94451.80
2018-11-14T12:06:02.784Z,94454.30
2018-11-14T12:21:06.588Z,94431.83
2018-11-14T12:36:10.466Z,94426.28
2018-11-14T12:51:14.248Z,94415.16
2018-11-14T13:06:18.027Z,94403.94
2018-11-14T13:21:21.904Z,94418.00
2018-11-14T13:36:25.720Z,94406.27
2018-11-14T13:51:29.538Z,94408.81
2018-11-14T14:06:33.330Z,94393.73
2018-11-14T14:21:37.209Z,94392.56
2018-11-14T14:36:41.020Z,94394.23
2018-11-14T14:51:44.800Z,94397.06
2018-11-14T15:06:48.551Z,94418.39
2018-11-14T15:21:52.300Z,94433.66
2018-11-14T15:36:56.095Z,94450.38
2018-11-14T15:51:59.963Z,94458.22
2018-11-14T16:07:03.828Z,94465.45
2018-11-14T16:22:07.812Z,94461.02
2018-11-14T16:37:11.608Z,94444.58
2018-11-14T16:52:15.405Z,94434.98
2018-11-14T17:07:19.401Z,94451.03
2018-11-14T17:22:23.397Z,94445.62
2018-11-14T17:37:27.290Z,94430.42
2018-11-14T17:52:31.186Z,94429.72
2018-11-14T18:07:35.139Z,94417.82
2018-11-14T18:22:39.696Z,94402.86
2018-11-14T18:37:44.345Z,94411.45
2018-11-14T18:52:48.677Z,94411.53
2018-11-14T19:07:52.821Z,94418.23
2018-11-14T19:22:57.563Z,94417.70
2018-11-14T19:38:01.965Z,94417.96
2018-11-14T19:53:06.561Z,94401.62
2018-11-14T20:08:10.593Z,94402.78
2018-11-14T20:23:14.723Z,94397.78
2018-11-14T20:38:18.815Z,94390.66
2018-11-14T20:53:23.001Z,94370.44
2018-11-14T21:08:26.890Z,94365.13
2018-11-14T21:23:30.747Z,94361.85
2018-11-14T21:38:34.803Z,94352.84
2018-11-14T21:53:38.725Z,94377.39
2018-11-14T22:08:42.609Z,94347.02
2018-11-14T22:23:46.648Z,94331.41
2018-11-14T22:38:51.224Z,94339.70
2018-11-14T22:53:55.394Z,94314.37
2018-11-14T23:08:59.970Z,94296.07
2018-11-14T23:24:04.180Z,94295.31
2018-11-14T23:39:11.366Z,94298.49
2018-11-14T23:54:15.184Z,94293.16
